createdAt,value
2019-02-17T00:01:00.545Z,4.8
2019-02-17T00:01:59.693Z,5.2
2019-02-17T00:03:00.476Z,5.0
2019-02-17T00:03:59.383Z,5.7
2019-02-17T00:04:59.183Z,4.5
2019-02-17T00:05:59.606Z,5.0
2019-02-17T00:06:59.357Z,5.5
2019-02-17T00:08:00.193Z,6.1
2019-02-17T00:09:00.012Z,4.9
2019-02-17T00:09:59.858Z,4.7
2019-02-17T00:11:00.120Z,5.2
2019-02-17T00:11:59.402Z,4.8
2019-02-17T00:12:59.814Z,4.7
2019-02-17T00:13:59.830Z,4.8
2019-02-17T00:14:59.418Z,4.8
2019-02-17T00:15:59.912Z,5.2
2019-02-17T00:16:59.617Z,5.1
2019-02-17T00:17:59.991Z,5.3
2019-02-17T00:18:59.567Z,4.8
2019-02-17T00:20:00.692Z,5.3
2019-02-17T00:20:59.503Z,5.2
2019-02-17T00:21:59.873Z,4.6
2019-02-17T00:22:59.538Z,5.0
2019-02-17T00:23:59.461Z,4.7
2019-02-17T00:24:59.594Z,5.3
2019-02-17T00:25:59.570Z,4.9
2019-02-17T00:26:59.619Z,5.0
2019-02-17T00:28:00.599Z,4.7
2019-02-17T00:29:00.340Z,5.1
2019-02-17T00:30:00.474Z,4.9
2019-02-17T00:30:59.209Z,5.4
2019-02-17T00:31:59.410Z,4.7
2019-02-17T00:32:59.352Z,5.5
2019-02-17T00:33:59.575Z,5.1
2019-02-17T00:34:59.519Z,4.7
2019-02-17T00:35:59.995Z,5.3
2019-02-17T00:36:59.779Z,4.9
2019-02-17T00:38:00.391Z,5.3
2019-02-17T00:39:00.576Z,5.3
2019-02-17T00:40:01.168Z,4.7
2019-02-17T00:40:59.491Z,5.3
2019-02-17T00:41:59.537Z,5.2
2019-02-17T00:43:00.132Z,4.9
2019-02-17T00:43:59.571Z,5.4
2019-02-17T00:45:01.990Z,5.2
2019-02-17T00:46:00.295Z,5.2
2019-02-17T00:46:59.361Z,5.5
2019-02-17T00:48:00.084Z,5.1
2019-02-17T00:48:59.550Z,5.2
2019-02-17T00:50:00.840Z,4.9
2019-02-17T00:50:59.217Z,5.3
2019-02-17T00:51:59.507Z,5.3
2019-02-17T00:52:59.475Z,5.2
2019-02-17T00:53:59.061Z,5.2
2019-02-17T00:54:59.013Z,5.2
2019-02-17T00:56:00.276Z,5.6
2019-02-17T00:56:59.312Z,5.7
2019-02-17T00:58:01.245Z,5.3
2019-02-17T00:59:09.378Z,4.9
2019-02-17T00:59:59.021Z,5.1
2019-02-17T01:01:01.269Z,5.2
2019-02-17T01:01:59.606Z,5.6
2019-02-17T01:03:00.656Z,5.0
2019-02-17T01:04:02.440Z,5.5
2019-02-17T01:04:59.335Z,5.7
2019-02-17T01:05:59.311Z,5.3
2019-02-17T01:06:59.111Z,5.3
2019-02-17T01:07:59.500Z,5.4
2019-02-17T01:08:59.287Z,5.4
2019-02-17T01:09:59.558Z,5.3
2019-02-17T01:10:59.564Z,4.8
2019-02-17T01:12:00.902Z,5.7
2019-02-17T01:12:59.498Z,5.4
2019-02-17T01:13:59.168Z,5.2
2019-02-17T01:14:59.203Z,5.3
2019-02-17T01:15:59.234Z,5.2
2019-02-17T01:16:59.115Z,5.6
2019-02-17T01:17:59.466Z,5.2
2019-02-17T01:18:59.298Z,5.2
2019-02-17T01:19:59.782Z,5.1
2019-02-17T01:21:00.782Z,5.0
2019-02-17T01:21:59.445Z,5.1
2019-02-17T01:22:59.899Z,5.2
2019-02-17T01:23:59.394Z,4.8
2019-02-17T01:24:59.870Z,4.9
2019-02-17T01:25:59.801Z,5.8
2019-02-17T01:27:00.883Z,4.8
2019-02-17T01:27:59.660Z,5.3
2019-02-17T01:29:20.095Z,4.8
2019-02-17T01:29:59.144Z,5.0
2019-02-17T01:31:00.328Z,4.7
2019-02-17T01:31:59.342Z,4.4
2019-02-17T01:32:59.184Z,5.2
2019-02-17T01:33:59.103Z,5.6
2019-02-17T01:34:58.980Z,5.3
2019-02-17T01:35:59.195Z,5.9
2019-02-17T01:36:59.830Z,5.5
2019-02-17T01:37:59.134Z,5.4
2019-02-17T01:38:59.419Z,5.3
2019-02-17T01:40:00.902Z,5.1
2019-02-17T01:40:59.804Z,5.3
2019-02-17T01:41:59.118Z,5.4
2019-02-17T01:42:59.752Z,5.2
2019-02-17T01:43:59.034Z,5.4
2019-02-17T01:44:59.538Z,5.0
2019-02-17T01:45:59.098Z,5.6
2019-02-17T01:46:59.159Z,5.7
2019-02-17T01:47:59.229Z,5.3
2019-02-17T01:48:59.127Z,5.3
2019-02-17T01:50:00.315Z,5.7
2019-02-17T01:50:59.079Z,5.4
2019-02-17T01:51:59.773Z,5.5
2019-02-17T01:52:58.938Z,5.6
2019-02-17T01:53:59.245Z,6.4
2019-02-17T01:54:59.164Z,5.9
2019-02-17T01:55:59.085Z,6.6
2019-02-17T01:56:59.109Z,5.7
2019-02-17T01:57:59.090Z,5.2
2019-02-17T01:58:58.924Z,5.7
2019-02-17T01:59:58.977Z,5.2
2019-02-17T02:00:59.103Z,5.4
2019-02-17T02:01:59.133Z,5.2
2019-02-17T02:02:59.464Z,5.4
2019-02-17T02:03:58.956Z,5.2
2019-02-17T02:04:58.924Z,5.1
2019-02-17T02:05:59.466Z,5.5
2019-02-17T02:06:59.088Z,5.2
2019-02-17T02:07:59.342Z,5.5
2019-02-17T02:08:58.934Z,5.8
2019-02-17T02:09:59.458Z,5.2
2019-02-17T02:10:59.030Z,5.4
2019-02-17T02:11:59.125Z,5.5
2019-02-17T02:12:58.899Z,5.4
2019-02-17T02:13:58.926Z,5.6
2019-02-17T02:14:59.126Z,5.6
2019-02-17T02:15:59.043Z,5.7
2019-02-17T02:16:59.397Z,5.6
2019-02-17T02:17:59.193Z,5.5
2019-02-17T02:18:58.943Z,5.8
2019-02-17T02:19:59.108Z,5.9
2019-02-17T02:20:59.030Z,5.5
2019-02-17T02:21:59.057Z,5.3
2019-02-17T02:22:59.121Z,5.5
2019-02-17T02:23:59.067Z,5.4
2019-02-17T02:24:58.921Z,5.2
2019-02-17T02:25:59.062Z,5.1
2019-02-17T02:26:59.063Z,5.5
2019-02-17T02:27:59.149Z,5.1
2019-02-17T02:29:00.117Z,5.1
2019-02-17T02:29:58.957Z,5.8
2019-02-17T02:31:00.285Z,5.2
2019-02-17T02:31:59.658Z,5.1
2019-02-17T02:32:58.929Z,5.1
2019-02-17T02:33:59.034Z,5.3
2019-02-17T02:34:59.941Z,5.2
2019-02-17T02:35:59.598Z,6.0
2019-02-17T02:36:59.487Z,5.1
2019-02-17T02:37:59.118Z,5.7
2019-02-17T02:39:00.400Z,5.5
2019-02-17T02:39:59.897Z,6.0
2019-02-17T02:40:59.134Z,5.7
2019-02-17T02:41:59.749Z,5.0
2019-02-17T02:42:59.630Z,5.5
2019-02-17T02:43:59.988Z,5.4
2019-02-17T02:44:59.596Z,6.2
2019-02-17T02:46:00.318Z,6.1
2019-02-17T02:46:59.291Z,5.7
2019-02-17T02:47:59.338Z,5.4
2019-02-17T02:48:59.381Z,5.9
2019-02-17T02:49:59.641Z,5.7
2019-02-17T02:50:59.453Z,5.8
2019-02-17T02:51:59.895Z,5.9
2019-02-17T02:52:59.208Z,6.0
2019-02-17T02:53:59.187Z,6.1
2019-02-17T02:54:59.096Z,5.5
2019-02-17T02:55:59.239Z,5.4
2019-02-17T02:57:00.147Z,5.7
2019-02-17T02:57:59.426Z,5.4
2019-02-17T02:59:00.766Z,5.4
2019-02-17T03:00:03.445Z,5.3
2019-02-17T03:01:00.443Z,5.3
2019-02-17T03:02:00.369Z,5.3
2019-02-17T03:02:59.747Z,4.8
2019-02-17T03:03:59.543Z,5.4
2019-02-17T03:04:59.400Z,5.4
2019-02-17T03:06:04.391Z,5.4
2019-02-17T03:07:00.094Z,4.9
2019-02-17T03:07:59.423Z,5.2
2019-02-17T03:09:00.795Z,5.7
2019-02-17T03:10:01.945Z,5.0
2019-02-17T03:10:59.283Z,5.5
2019-02-17T03:12:00.276Z,5.5
2019-02-17T03:13:02.315Z,5.6
2019-02-17T03:13:59.816Z,5.5
2019-02-17T03:14:59.307Z,5.6
2019-02-17T03:16:00.847Z,5.5
2019-02-17T03:17:00.646Z,5.5
2019-02-17T03:18:01.064Z,5.1
2019-02-17T03:18:59.786Z,5.5
2019-02-17T03:19:59.410Z,5.3
2019-02-17T03:21:00.081Z,4.9
2019-02-17T03:22:03.468Z,5.4
2019-02-17T03:23:01.689Z,5.2
2019-02-17T03:24:00.167Z,5.1
2019-02-17T03:25:00.705Z,5.7
2019-02-17T03:25:59.668Z,5.5
2019-02-17T03:26:59.043Z,5.6
2019-02-17T03:27:59.643Z,5.8
2019-02-17T03:28:59.227Z,6.1
2019-02-17T03:30:04.344Z,6.2
2019-02-17T03:30:59.611Z,5.3
2019-02-17T03:32:00.536Z,5.5
2019-02-17T03:32:59.353Z,5.3
2019-02-17T03:33:59.590Z,5.4
2019-02-17T03:34:59.577Z,5.3
2019-02-17T03:35:59.313Z,5.4
2019-02-17T03:36:59.547Z,5.8
2019-02-17T03:37:59.251Z,6.3
2019-02-17T03:38:59.121Z,5.8
2019-02-17T03:39:59.775Z,5.4
2019-02-17T03:40:59.285Z,5.9
2019-02-17T03:41:59.260Z,5.3
2019-02-17T03:42:59.900Z,5.7
2019-02-17T03:43:59.496Z,5.3
2019-02-17T03:44:59.294Z,5.4
2019-02-17T03:45:59.150Z,5.4
2019-02-17T03:46:59.310Z,5.3
2019-02-17T03:48:01.316Z,5.3
2019-02-17T03:48:59.350Z,5.5
2019-02-17T03:49:59.548Z,5.3
2019-02-17T03:50:59.822Z,5.5
2019-02-17T03:51:59.386Z,5.5
2019-02-17T03:53:00.003Z,5.5
2019-02-17T03:53:59.125Z,5.6
2019-02-17T03:55:00.167Z,5.6
2019-02-17T03:55:59.399Z,5.7
2019-02-17T03:56:59.402Z,5.7
2019-02-17T03:57:59.408Z,5.7
2019-02-17T03:58:59.432Z,5.7
2019-02-17T03:59:59.693Z,5.4
2019-02-17T04:00:59.547Z,5.6
2019-02-17T04:01:59.497Z,5.8
2019-02-17T04:02:59.246Z,6.0
2019-02-17T04:03:59.350Z,5.4
2019-02-17T04:04:59.364Z,5.7
2019-02-17T04:05:59.425Z,5.5
2019-02-17T04:06:59.884Z,5.3
2019-02-17T04:07:59.340Z,5.5
2019-02-17T04:08:59.393Z,5.2
2019-02-17T04:09:59.321Z,5.1
2019-02-17T04:10:59.306Z,5.7
2019-02-17T04:11:59.255Z,5.7
2019-02-17T04:12:59.173Z,5.1
2019-02-17T04:13:59.429Z,5.4
2019-02-17T04:14:59.731Z,5.9
2019-02-17T04:15:59.158Z,5.7
2019-02-17T04:16:59.325Z,5.6
2019-02-17T04:17:59.192Z,5.8
2019-02-17T04:18:59.361Z,5.1
2019-02-17T04:19:59.940Z,5.4
2019-02-17T04:21:00.483Z,5.7
2019-02-17T04:21:59.249Z,5.5
2019-02-17T04:22:59.405Z,5.0
2019-02-17T04:23:59.426Z,5.4
2019-02-17T04:25:00.384Z,5.5
2019-02-17T04:25:59.693Z,5.5
2019-02-17T04:27:00.262Z,5.6
2019-02-17T04:27:59.443Z,5.8
2019-02-17T04:28:59.558Z,5.4
2019-02-17T04:30:00.750Z,5.9
2019-02-17T04:30:59.689Z,5.6
2019-02-17T04:31:59.237Z,5.0
2019-02-17T04:33:00.344Z,5.8
2019-02-17T04:33:59.429Z,5.9
2019-02-17T04:34:59.315Z,5.4
2019-02-17T04:35:59.706Z,5.4
2019-02-17T04:36:59.260Z,5.8
2019-02-17T04:37:59.449Z,5.2
2019-02-17T04:38:59.462Z,5.5
2019-02-17T04:39:59.798Z,5.3
2019-02-17T04:40:59.540Z,5.5
2019-02-17T04:41:59.998Z,6.1
2019-02-17T04:42:59.466Z,5.8
2019-02-17T04:44:00.088Z,5.4
2019-02-17T04:44:59.224Z,6.0
2019-02-17T04:45:59.738Z,5.4
2019-02-17T04:46:59.786Z,5.6
2019-02-17T04:47:59.689Z,5.6
2019-02-17T04:48:59.625Z,5.3
2019-02-17T04:49:59.681Z,5.5
2019-02-17T04:50:59.773Z,5.7
2019-02-17T04:51:59.406Z,6.2
2019-02-17T04:52:59.206Z,5.2
2019-02-17T04:53:59.323Z,6.1
2019-02-17T04:54:59.662Z,6.0
2019-02-17T04:55:59.708Z,6.2
2019-02-17T04:56:59.437Z,5.9
2019-02-17T04:57:59.722Z,5.8
2019-02-17T04:59:01.481Z,6.5
2019-02-17T04:59:59.520Z,6.0
2019-02-17T05:00:59.257Z,6.0
2019-02-17T05:01:59.795Z,5.6
2019-02-17T05:02:59.519Z,5.8
2019-02-17T05:03:59.261Z,5.7
2019-02-17T05:04:59.720Z,5.6
2019-02-17T05:05:59.800Z,5.5
2019-02-17T05:06:59.456Z,5.5
2019-02-17T05:07:59.721Z,5.7
2019-02-17T05:08:59.287Z,5.7
2019-02-17T05:09:59.781Z,5.9
2019-02-17T05:10:59.773Z,5.7
2019-02-17T05:11:59.780Z,5.3
2019-02-17T05:12:59.700Z,5.7
2019-02-17T05:13:59.717Z,5.9
2019-02-17T05:14:59.712Z,6.0
2019-02-17T05:15:59.266Z,5.8
2019-02-17T05:16:59.747Z,5.6
2019-02-17T05:17:59.540Z,5.7
2019-02-17T05:18:59.669Z,5.6
2019-02-17T05:19:59.540Z,5.7
2019-02-17T05:20:59.487Z,5.5
2019-02-17T05:21:59.392Z,5.8
2019-02-17T05:22:59.266Z,5.3
2019-02-17T05:23:59.470Z,5.6
2019-02-17T05:24:59.981Z,5.9
2019-02-17T05:26:00.014Z,6.0
2019-02-17T05:27:02.821Z,6.1
2019-02-17T05:27:59.548Z,5.6
2019-02-17T05:28:59.382Z,5.3
2019-02-17T05:29:59.523Z,5.5
2019-02-17T05:30:59.502Z,5.5
2019-02-17T05:31:59.826Z,6.0
2019-02-17T05:33:00.134Z,5.6
2019-02-17T05:33:59.676Z,5.6
2019-02-17T05:34:59.813Z,5.4
2019-02-17T05:35:59.586Z,5.8
2019-02-17T05:36:59.599Z,5.8
2019-02-17T05:37:59.871Z,5.7
2019-02-17T05:38:59.616Z,5.5
2019-02-17T05:39:59.605Z,6.1
2019-02-17T05:40:59.545Z,6.1
2019-02-17T05:41:59.578Z,5.8
2019-02-17T05:42:59.547Z,6.1
2019-02-17T05:43:59.585Z,5.6
2019-02-17T05:44:59.590Z,5.6
2019-02-17T05:45:59.823Z,5.4
2019-02-17T05:46:59.613Z,5.5
2019-02-17T05:47:59.473Z,5.7
2019-02-17T05:48:59.632Z,5.3
2019-02-17T05:49:59.627Z,5.6
2019-02-17T05:51:00.083Z,5.4
2019-02-17T05:51:59.951Z,5.7
2019-02-17T05:52:59.648Z,6.0
2019-02-17T05:53:59.946Z,6.0
2019-02-17T05:55:00.294Z,6.0
2019-02-17T05:55:59.656Z,5.7
2019-02-17T05:56:59.991Z,5.7
2019-02-17T05:57:59.634Z,5.8
2019-02-17T05:58:59.903Z,6.3
2019-02-17T05:59:59.623Z,5.4
2019-02-17T06:01:03.430Z,5.6
2019-02-17T06:02:00.581Z,5.3
2019-02-17T06:02:59.598Z,5.9
2019-02-17T06:03:59.482Z,5.6
2019-02-17T06:04:59.545Z,5.9
2019-02-17T06:05:59.448Z,5.7
2019-02-17T06:06:59.858Z,5.6
2019-02-17T06:07:59.490Z,5.5
2019-02-17T06:08:59.789Z,5.3
2019-02-17T06:09:59.944Z,5.4
2019-02-17T06:10:59.422Z,5.2
2019-02-17T06:11:59.990Z,5.3
2019-02-17T06:13:00.017Z,5.4
2019-02-17T06:13:59.795Z,5.6
2019-02-17T06:14:59.474Z,5.7
2019-02-17T06:15:59.418Z,5.8
2019-02-17T06:16:59.546Z,5.5
2019-02-17T06:17:59.943Z,5.6
2019-02-17T06:18:59.441Z,5.8
2019-02-17T06:19:59.506Z,5.4
2019-02-17T06:20:59.877Z,5.6
2019-02-17T06:22:00.096Z,5.6
2019-02-17T06:22:59.799Z,5.8
2019-02-17T06:23:59.960Z,5.6
2019-02-17T06:24:59.680Z,5.6
2019-02-17T06:26:00.713Z,5.4
2019-02-17T06:26:59.699Z,5.1
2019-02-17T06:27:59.467Z,5.6
2019-02-17T06:28:59.937Z,5.2
2019-02-17T06:29:59.593Z,5.2
2019-02-17T06:30:59.570Z,5.8
2019-02-17T06:31:59.439Z,5.6
2019-02-17T06:32:59.802Z,5.2
2019-02-17T06:33:59.607Z,5.6
2019-02-17T06:34:59.602Z,5.5
2019-02-17T06:35:59.635Z,5.1
2019-02-17T06:36:59.844Z,5.4
2019-02-17T06:37:59.604Z,5.6
2019-02-17T06:38:59.872Z,5.4
2019-02-17T06:39:59.943Z,5.7
2019-02-17T06:40:59.526Z,5.5
2019-02-17T06:41:59.492Z,5.3
2019-02-17T06:42:59.675Z,5.9
2019-02-17T06:43:59.948Z,5.7
2019-02-17T06:44:59.569Z,5.4
2019-02-17T06:46:00.910Z,5.3
2019-02-17T06:47:00.127Z,6.0
2019-02-17T06:48:00.074Z,5.5
2019-02-17T06:49:00.240Z,5.2
2019-02-17T06:49:59.694Z,5.2
2019-02-17T06:50:59.544Z,5.4
2019-02-17T06:51:59.661Z,5.5
2019-02-17T06:52:59.687Z,5.2
2019-02-17T06:53:59.768Z,4.8
2019-02-17T06:55:00.463Z,5.3
2019-02-17T06:55:59.557Z,5.8
2019-02-17T06:56:59.661Z,5.8
2019-02-17T06:57:59.731Z,5.2
2019-02-17T06:58:59.529Z,5.7
2019-02-17T06:59:59.616Z,5.6
2019-02-17T07:00:59.930Z,5.4
2019-02-17T07:01:59.641Z,5.3
2019-02-17T07:02:59.653Z,5.1
2019-02-17T07:03:59.728Z,5.5
2019-02-17T07:04:59.588Z,5.1
2019-02-17T07:05:59.740Z,5.2
2019-02-17T07:06:59.934Z,5.8
2019-02-17T07:07:59.485Z,5.5
2019-02-17T07:08:59.670Z,5.4
2019-02-17T07:09:59.653Z,5.1
2019-02-17T07:11:00.003Z,5.5
2019-02-17T07:11:59.734Z,5.0
2019-02-17T07:12:59.613Z,5.3
2019-02-17T07:13:59.729Z,5.7
2019-02-17T07:14:59.792Z,5.1
2019-02-17T07:15:59.781Z,5.6
2019-02-17T07:16:59.683Z,5.4
2019-02-17T07:17:59.690Z,5.4
2019-02-17T07:19:00.023Z,5.2
2019-02-17T07:20:00.066Z,5.5
2019-02-17T07:20:59.799Z,5.1
2019-02-17T07:21:59.494Z,5.1
2019-02-17T07:22:59.576Z,4.9
2019-02-17T07:23:59.488Z,5.3
2019-02-17T07:24:59.727Z,5.0
2019-02-17T07:25:59.954Z,5.3
2019-02-17T07:27:00.363Z,5.2
2019-02-17T07:27:59.510Z,5.1
2019-02-17T07:28:59.737Z,5.1
2019-02-17T07:29:59.767Z,5.2
2019-02-17T07:30:59.719Z,5.1
2019-02-17T07:31:59.538Z,5.2
2019-02-17T07:32:59.917Z,5.0
2019-02-17T07:34:00.767Z,5.4
2019-02-17T07:35:00.056Z,5.4
2019-02-17T07:35:59.804Z,5.2
2019-02-17T07:36:59.763Z,5.0
2019-02-17T07:37:59.817Z,5.6
2019-02-17T07:38:59.596Z,5.2
2019-02-17T07:39:59.695Z,5.2
2019-02-17T07:40:59.831Z,5.0
2019-02-17T07:42:00.920Z,5.5
2019-02-17T07:43:00.673Z,5.3
2019-02-17T07:44:00.140Z,5.7
2019-02-17T07:44:59.999Z,5.6
2019-02-17T07:46:00.085Z,5.5
2019-02-17T07:46:59.886Z,5.9
2019-02-17T07:47:59.824Z,5.5
2019-02-17T07:48:59.748Z,5.5
2019-02-17T07:50:00.458Z,5.7
2019-02-17T07:50:59.969Z,5.5
2019-02-17T07:52:00.103Z,5.7
2019-02-17T07:53:00.165Z,5.6
2019-02-17T07:54:00.121Z,5.6
2019-02-17T07:54:59.862Z,5.3
2019-02-17T07:55:59.752Z,5.5
2019-02-17T07:56:59.563Z,5.4
2019-02-17T07:57:59.480Z,5.7
2019-02-17T07:58:59.883Z,5.5
2019-02-17T07:59:59.772Z,5.7
2019-02-17T08:00:59.836Z,5.7
2019-02-17T08:01:59.598Z,5.8
2019-02-17T08:03:00.653Z,5.5
2019-02-17T08:04:00.034Z,5.2
2019-02-17T08:04:59.788Z,5.3
2019-02-17T08:05:59.840Z,5.3
2019-02-17T08:06:59.799Z,5.2
2019-02-17T08:07:59.771Z,5.4
2019-02-17T08:08:59.568Z,5.7
2019-02-17T08:10:00.666Z,5.0
2019-02-17T08:11:03.776Z,5.3
2019-02-17T08:11:59.818Z,5.2
2019-02-17T08:12:59.768Z,5.2
2019-02-17T08:13:59.865Z,5.4
2019-02-17T08:15:00.010Z,5.3
2019-02-17T08:15:59.814Z,5.2
2019-02-17T08:16:59.620Z,5.4
2019-02-17T08:17:59.786Z,5.0
2019-02-17T08:19:00.038Z,5.2
2019-02-17T08:19:59.802Z,5.3
2019-02-17T08:21:00.193Z,5.3
2019-02-17T08:21:59.823Z,5.2
2019-02-17T08:22:59.831Z,5.3
2019-02-17T08:24:01.842Z,5.2
2019-02-17T08:24:59.686Z,5.8
2019-02-17T08:25:59.848Z,5.6
2019-02-17T08:26:59.822Z,5.6
2019-02-17T08:27:59.651Z,5.1
2019-02-17T08:28:59.633Z,5.6
2019-02-17T08:30:03.115Z,5.5
2019-02-17T08:31:04.693Z,5.4
2019-02-17T08:32:00.575Z,5.6
2019-02-17T08:33:01.351Z,5.7
2019-02-17T08:34:01.402Z,5.1
2019-02-17T08:35:02.229Z,5.7
2019-02-17T08:36:02.478Z,5.8
2019-02-17T08:37:02.416Z,5.8
2019-02-17T08:38:03.478Z,5.4
2019-02-17T08:39:04.798Z,5.3
2019-02-17T08:40:04.023Z,5.5
2019-02-17T08:41:01.459Z,5.8
2019-02-17T08:42:16.572Z,5.8
2019-02-17T08:43:02.165Z,5.7
2019-02-17T08:44:02.581Z,5.4
2019-02-17T08:45:00.810Z,5.4
2019-02-17T08:46:01.056Z,5.6
2019-02-17T08:47:00.884Z,5.4
2019-02-17T08:48:02.353Z,5.5
2019-02-17T08:49:05.615Z,8.6
2019-02-17T08:50:00.781Z,7.4
2019-02-17T08:51:04.142Z,6.3
2019-02-17T08:52:03.418Z,6.7
2019-02-17T08:53:01.079Z,6.0
2019-02-17T08:54:02.682Z,6.2
2019-02-17T08:55:02.204Z,7.5
2019-02-17T08:56:06.116Z,6.4
2019-02-17T08:57:02.063Z,5.9
2019-02-17T08:58:00.384Z,6.8
2019-02-17T08:59:01.980Z,7.2
2019-02-17T09:00:03.405Z,6.0
2019-02-17T09:01:02.046Z,7.2
2019-02-17T09:02:05.352Z,6.4
2019-02-17T09:03:01.853Z,7.9
2019-02-17T09:04:00.059Z,5.9
2019-02-17T09:05:01.864Z,5.8
2019-02-17T09:06:00.174Z,5.5
2019-02-17T09:07:00.521Z,5.5
2019-02-17T09:08:00.668Z,5.9
2019-02-17T09:09:01.410Z,7.8
2019-02-17T09:10:03.069Z,5.7
2019-02-17T09:11:00.315Z,5.8
2019-02-17T09:12:04.493Z,5.5
2019-02-17T09:13:02.618Z,5.3
2019-02-17T09:14:02.034Z,5.7
2019-02-17T09:15:00.399Z,5.8
2019-02-17T09:16:00.549Z,5.4
2019-02-17T09:17:00.677Z,5.4
2019-02-17T09:18:00.030Z,5.8
2019-02-17T09:19:01.303Z,5.7
2019-02-17T09:19:59.972Z,5.7
2019-02-17T09:21:00.863Z,6.2
2019-02-17T09:22:00.430Z,5.4
2019-02-17T09:23:00.619Z,5.5
2019-02-17T09:24:01.561Z,5.5
2019-02-17T09:25:01.699Z,6.3
2019-02-17T09:26:01.343Z,5.3
2019-02-17T09:27:00.978Z,5.2
2019-02-17T09:28:03.259Z,5.3
2019-02-17T09:29:02.108Z,5.3
2019-02-17T09:30:04.574Z,4.9
2019-02-17T09:31:02.254Z,5.2
2019-02-17T09:32:00.124Z,5.0
2019-02-17T09:33:00.799Z,5.1
2019-02-17T09:34:00.002Z,10.9
2019-02-17T09:35:06.123Z,5.1
2019-02-17T09:36:03.170Z,5.1
2019-02-17T09:37:00.510Z,5.1
2019-02-17T09:38:00.081Z,4.9
2019-02-17T09:39:00.616Z,5.1
2019-02-17T09:40:00.502Z,5.0
2019-02-17T09:41:00.609Z,5.1
2019-02-17T09:42:00.061Z,4.7
2019-02-17T09:43:00.277Z,5.1
2019-02-17T09:43:59.969Z,7.4
2019-02-17T09:44:59.976Z,5.1
2019-02-17T09:46:01.389Z,5.0
2019-02-17T09:47:04.534Z,5.1
2019-02-17T09:48:00.366Z,4.8
2019-02-17T09:49:00.649Z,4.7
2019-02-17T09:50:01.536Z,4.5
2019-02-17T09:51:02.492Z,5.3
2019-02-17T09:52:01.259Z,4.7
2019-02-17T09:53:03.148Z,4.7
2019-02-17T09:54:01.617Z,5.1
2019-02-17T09:55:00.219Z,4.8
2019-02-17T09:56:00.634Z,4.8
2019-02-17T09:57:00.375Z,5.0
2019-02-17T09:58:00.690Z,4.7
2019-02-17T09:59:00.987Z,4.7
2019-02-17T10:00:01.213Z,4.8
2019-02-17T10:01:01.227Z,4.8
2019-02-17T10:02:00.289Z,4.6
2019-02-17T10:03:00.852Z,4.4
2019-02-17T10:04:00.222Z,4.6
2019-02-17T10:05:00.474Z,4.4
2019-02-17T10:06:00.422Z,4.4
2019-02-17T10:07:02.576Z,4.4
2019-02-17T10:08:00.085Z,4.9
2019-02-17T10:09:00.030Z,4.3
2019-02-17T10:10:00.218Z,4.2
2019-02-17T10:11:00.796Z,4.3
2019-02-17T10:12:01.266Z,4.3
2019-02-17T10:13:01.311Z,4.4
2019-02-17T10:13:59.992Z,4.5
2019-02-17T10:15:00.870Z,4.5
2019-02-17T10:16:00.036Z,4.4
2019-02-17T10:17:00.400Z,4.0
2019-02-17T10:18:00.391Z,3.8
2019-02-17T10:19:00.072Z,4.4
2019-02-17T10:20:00.654Z,4.5
2019-02-17T10:21:00.224Z,4.5
2019-02-17T10:22:00.277Z,4.5
2019-02-17T10:23:00.589Z,4.4
2019-02-17T10:24:01.690Z,4.5
2019-02-17T10:25:00.591Z,4.5
2019-02-17T10:26:01.837Z,4.6
2019-02-17T10:27:00.620Z,4.6
2019-02-17T10:28:00.409Z,4.4
2019-02-17T10:29:00.614Z,4.1
2019-02-17T10:30:01.739Z,4.3
2019-02-17T10:31:03.189Z,4.1
2019-02-17T10:32:01.317Z,4.3
2019-02-17T10:33:00.138Z,4.2
2019-02-17T10:34:00.285Z,4.5
2019-02-17T10:35:00.734Z,4.2
2019-02-17T10:36:00.867Z,4.0
2019-02-17T10:37:00.940Z,3.9
2019-02-17T10:38:00.694Z,4.1
2019-02-17T10:39:00.254Z,4.0
2019-02-17T10:40:00.753Z,4.3
2019-02-17T10:41:01.152Z,3.9
2019-02-17T10:42:00.336Z,3.9
2019-02-17T10:43:00.590Z,4.0
2019-02-17T10:44:00.038Z,4.0
2019-02-17T10:45:00.455Z,4.3
2019-02-17T10:46:00.263Z,3.8
2019-02-17T10:46:59.971Z,5.0
2019-02-17T10:48:00.317Z,4.7
2019-02-17T10:49:00.959Z,4.2
2019-02-17T10:50:00.121Z,3.9
2019-02-17T10:51:00.028Z,4.1
2019-02-17T10:52:00.193Z,3.8
2019-02-17T10:53:00.110Z,3.8
2019-02-17T10:54:00.369Z,3.7
2019-02-17T10:55:00.300Z,3.7
2019-02-17T10:56:00.532Z,5.0
2019-02-17T10:57:02.041Z,4.3
2019-02-17T10:58:00.723Z,3.8
2019-02-17T10:59:03.289Z,3.9
2019-02-17T11:00:01.162Z,4.1
2019-02-17T11:01:00.673Z,3.7
2019-02-17T11:02:00.374Z,3.8
2019-02-17T11:03:00.165Z,3.5
2019-02-17T11:04:00.547Z,3.4
2019-02-17T11:05:00.571Z,3.6
2019-02-17T11:06:00.110Z,3.4
2019-02-17T11:07:00.755Z,3.7
2019-02-17T11:08:00.932Z,3.8
2019-02-17T11:09:01.362Z,3.6
2019-02-17T11:10:01.387Z,3.5
2019-02-17T11:11:00.319Z,4.1
2019-02-17T11:12:01.798Z,3.5
2019-02-17T11:13:00.165Z,3.6
2019-02-17T11:14:00.340Z,4.4
2019-02-17T11:15:00.659Z,3.6
2019-02-17T11:16:00.258Z,3.5
2019-02-17T11:17:00.294Z,3.5
2019-02-17T11:18:00.349Z,3.3
2019-02-17T11:19:00.828Z,3.6
2019-02-17T11:20:00.571Z,3.6
2019-02-17T11:21:00.099Z,4.0
2019-02-17T11:22:00.341Z,4.3
2019-02-17T11:23:01.217Z,4.1
2019-02-17T11:24:01.846Z,4.4
2019-02-17T11:25:04.566Z,4.5
2019-02-17T11:26:02.086Z,4.5
2019-02-17T11:27:03.613Z,4.3
2019-02-17T11:28:04.686Z,4.5
2019-02-17T11:29:01.409Z,4.3
2019-02-17T11:30:05.329Z,4.3
2019-02-17T11:31:06.086Z,4.3
2019-02-17T11:32:01.396Z,4.3
2019-02-17T11:33:06.303Z,4.5
2019-02-17T11:34:03.064Z,4.2
2019-02-17T11:35:00.542Z,4.0
2019-02-17T11:36:03.710Z,4.4
2019-02-17T11:37:08.972Z,4.2
2019-02-17T11:38:00.942Z,4.0
2019-02-17T11:39:00.123Z,4.2
2019-02-17T11:40:00.340Z,4.0
2019-02-17T11:41:00.623Z,3.9
2019-02-17T11:42:00.163Z,4.5
2019-02-17T11:43:00.298Z,4.0
2019-02-17T11:44:00.647Z,4.0
2019-02-17T11:45:00.739Z,4.0
2019-02-17T11:46:00.180Z,3.9
2019-02-17T11:47:00.561Z,3.8
2019-02-17T11:48:00.665Z,4.1
2019-02-17T11:49:00.783Z,4.0
2019-02-17T11:50:01.254Z,3.9
2019-02-17T11:51:00.551Z,4.4
2019-02-17T11:52:02.837Z,4.1
2019-02-17T11:53:00.922Z,3.9
2019-02-17T11:54:00.916Z,4.3
2019-02-17T11:55:04.436Z,4.0
2019-02-17T11:56:03.662Z,4.2
2019-02-17T11:57:03.229Z,3.9
2019-02-17T11:58:00.676Z,5.5
2019-02-17T11:59:00.330Z,4.1
2019-02-17T12:00:00.329Z,4.4
2019-02-17T12:01:01.965Z,3.9
2019-02-17T12:02:00.558Z,5.3
2019-02-17T12:03:07.301Z,4.4
2019-02-17T12:04:04.751Z,3.7
2019-02-17T12:05:02.406Z,4.3
2019-02-17T12:06:00.272Z,3.7
2019-02-17T12:07:02.400Z,3.9
2019-02-17T12:08:07.413Z,4.2
2019-02-17T12:09:05.064Z,4.5
2019-02-17T12:10:00.762Z,4.0
2019-02-17T12:11:00.944Z,3.5
2019-02-17T12:12:02.592Z,3.5
2019-02-17T12:13:01.206Z,3.5
2019-02-17T12:14:00.644Z,4.1
2019-02-17T12:15:00.619Z,5.1
2019-02-17T12:16:00.627Z,3.7
2019-02-17T12:17:01.906Z,3.4
2019-02-17T12:18:01.105Z,3.6
2019-02-17T12:19:01.551Z,4.4
2019-02-17T12:20:00.120Z,3.5
2019-02-17T12:21:01.810Z,3.6
2019-02-17T12:22:01.229Z,3.3
2019-02-17T12:23:00.867Z,5.2
2019-02-17T12:24:02.563Z,3.5
2019-02-17T12:25:00.626Z,4.1
2019-02-17T12:26:00.527Z,3.7
2019-02-17T12:27:00.752Z,3.3
2019-02-17T12:28:01.026Z,3.6
2019-02-17T12:29:00.746Z,3.5
2019-02-17T12:30:01.238Z,3.4
2019-02-17T12:31:00.925Z,3.5
2019-02-17T12:32:00.406Z,3.4
2019-02-17T12:33:04.493Z,3.1
2019-02-17T12:34:00.523Z,3.3
2019-02-17T12:35:00.586Z,3.3
2019-02-17T12:36:00.630Z,3.0
2019-02-17T12:37:00.572Z,3.4
2019-02-17T12:38:01.629Z,3.3
2019-02-17T12:39:00.407Z,3.1
2019-02-17T12:40:01.062Z,3.4
2019-02-17T12:41:00.624Z,3.0
2019-02-17T12:42:00.956Z,3.2
2019-02-17T12:43:00.664Z,3.5
2019-02-17T12:44:01.257Z,3.1
2019-02-17T12:45:02.765Z,2.9
2019-02-17T12:46:03.265Z,3.3
2019-02-17T12:47:00.755Z,3.5
2019-02-17T12:48:01.284Z,3.0
2019-02-17T12:49:01.687Z,3.0
2019-02-17T12:50:01.997Z,3.1
2019-02-17T12:51:00.660Z,2.9
2019-02-17T12:52:02.077Z,3.2
2019-02-17T12:53:00.757Z,3.8
2019-02-17T12:54:02.223Z,3.3
2019-02-17T12:55:00.387Z,3.0
2019-02-17T12:56:00.610Z,4.0
2019-02-17T12:57:00.465Z,2.9
2019-02-17T12:58:02.715Z,3.1
2019-02-17T12:59:00.268Z,3.6
2019-02-17T13:00:00.983Z,3.2
2019-02-17T13:01:02.333Z,3.3
2019-02-17T13:02:01.030Z,4.4
2019-02-17T13:03:01.097Z,2.9
2019-02-17T13:04:00.250Z,3.1
2019-02-17T13:05:01.004Z,3.1
2019-02-17T13:06:00.285Z,3.3
2019-02-17T13:07:00.955Z,2.7
2019-02-17T13:08:00.976Z,3.1
2019-02-17T13:09:00.398Z,3.1
2019-02-17T13:10:00.820Z,4.3
2019-02-17T13:11:01.640Z,2.9
2019-02-17T13:12:01.211Z,2.7
2019-02-17T13:13:01.124Z,3.0
2019-02-17T13:14:01.795Z,3.0
2019-02-17T13:15:00.542Z,2.8
2019-02-17T13:16:00.325Z,2.7
2019-02-17T13:17:00.601Z,2.6
2019-02-17T13:18:01.518Z,2.8
2019-02-17T13:19:00.493Z,2.8
2019-02-17T13:20:02.748Z,3.0
2019-02-17T13:21:05.229Z,2.9
2019-02-17T13:22:01.572Z,2.9
2019-02-17T13:23:02.889Z,2.9
2019-02-17T13:24:04.145Z,3.0
2019-02-17T13:25:05.416Z,2.9
2019-02-17T13:26:00.558Z,3.1
2019-02-17T13:27:05.301Z,3.2
2019-02-17T13:28:02.656Z,2.8
2019-02-17T13:29:03.289Z,2.7
2019-02-17T13:30:05.163Z,2.8
2019-02-17T13:31:03.193Z,2.9
2019-02-17T13:32:00.667Z,3.0
2019-02-17T13:33:01.405Z,3.4
2019-02-17T13:34:02.490Z,2.9
2019-02-17T13:35:02.314Z,2.7
2019-02-17T13:36:02.383Z,2.8
2019-02-17T13:37:02.667Z,2.9
2019-02-17T13:38:05.665Z,2.7
2019-02-17T13:39:01.940Z,2.8
2019-02-17T13:40:03.762Z,2.7
2019-02-17T13:41:12.543Z,2.6
2019-02-17T13:42:02.446Z,2.7
2019-02-17T13:43:03.656Z,2.8
2019-02-17T13:44:02.595Z,2.9
2019-02-17T13:45:04.933Z,3.6
2019-02-17T13:46:00.770Z,2.7
2019-02-17T13:47:00.338Z,3.1